Flight Track Log - Related Links

Times and Time Zones

All times are in EDT time to prevent confusion due to time zone crossing. See the SWA267 flight status page for this flight to view local times or setup timezone preferences in your user account.

Time Position Orientation Groundspeed Altitude Reporting Facility
EDT Latitude Longitude Course Direction KTS MPH feet Rate Location/Type
Fri 10:04:13 AM 28.4000 -81.3000 139° Southeast 174 200 500  Level Orlando TRACON
Fri 10:05:07 AM 28.3667 -81.2667 139° Southeast 232 267 2,200 2,367 Climbing Orlando TRACON
Fri 10:06:02 AM 28.3333 -81.2167 127° Southeast 222 255 4,800 2,392 Climbing Orlando TRACON
Fri 10:07:40 AM 28.4375 -81.2258 356° North 267 307 8,300 2,354 Climbing Jacksonville Center
Fri 10:08:40 AM 28.5150 -81.2458 347° North 278 320 11,000 2,500 Climbing Jacksonville Center
Fri 10:09:40 AM 28.6047 -81.2561 354° North 299 344 13,300 2,300 Climbing Jacksonville Center
Fri 10:10:40 AM 28.6989 -81.2714 352° North 324 373 15,600 2,150 Climbing Jacksonville Center
Fri 10:11:40 AM 28.7994 -81.2861 353° North 339 390 17,600 1,750 Climbing Jacksonville Center
Fri 10:12:40 AM 28.9039 -81.3011 353° North 364 419 19,100 1,600 Climbing Jacksonville Center
Fri 10:13:40 AM 29.0167 -81.3161 353° North 381 438 20,800 1,900 Climbing Jacksonville Center
Fri 10:14:40 AM 29.1256 -81.3333 352° North 392 451 22,900 1,700 Climbing Jacksonville Center
Fri 10:15:40 AM 29.2383 -81.3481 354° North 399 459 24,200 1,300 Climbing Jacksonville Center
Fri 10:16:40 AM 29.3556 -81.3653 353° North 416 479 25,500 1,550 Climbing Jacksonville Center
Fri 10:17:40 AM 29.4747 -81.3825 353° North 422 486 27,300 1,500 Climbing Jacksonville Center
Fri 10:18:40 AM 29.6003 -81.4044 351° North 422 486 28,500 1,400 Climbing Jacksonville Center
Fri 10:19:40 AM 29.7194 -81.4219 353° North 422 486 30,100 1,600 Climbing Jacksonville Center
Fri 10:20:40 AM 29.8322 -81.4369 353° North 422 486 31,700 1,350 Climbing Jacksonville Center
Fri 10:21:40 AM 29.9431 -81.4544 352° North 415 478 32,800 1,050 Climbing Jacksonville Center
Fri 10:22:40 AM 30.0539 -81.4694 353° North 410 472 33,800 1,050 Climbing Jacksonville Center
Fri 10:23:40 AM 30.1522 -81.4825 353° North 405 466 34,900 600 Climbing Jacksonville Center
Fri 10:24:40 AM 30.2631 -81.5000 352° North 405 466 35,000 50 Climbing Jacksonville Center
Fri 10:25:40 AM 30.3697 -81.5058 357° North 399 459 35,000  Level Jacksonville Center
Fri 10:26:40 AM 30.4803 -81.4969 North 388 447 35,000  Level Jacksonville Center
Fri 10:27:40 AM 30.5908 -81.4906 North 388 447 35,000  Level Jacksonville Center
Fri 10:28:40 AM 30.7014 -81.4817 North 388 447 35,000  Level Jacksonville Center
Fri 10:29:40 AM 30.8139 -81.4728 North 393 452 35,000  Level Jacksonville Center
Fri 10:30:40 AM 30.9267 -81.4636 North 399 459 35,000  Level Jacksonville Center
Fri 10:31:40 AM 31.0392 -81.4547 North 404 465 35,000  Level Jacksonville Center
Fri 10:32:40 AM 31.1539 -81.4456 North 404 465 35,000  Level Jacksonville Center
Fri 10:33:40 AM 31.2667 -81.4319 North 404 465 35,000  Level Jacksonville Center
Fri 10:34:40 AM 31.3700 -81.3572 32° Northeast 410 472 35,000  Level Jacksonville Center
Fri 10:35:40 AM 31.4775 -81.2628 37° Northeast 439 505 35,000  Level Jacksonville Center
Fri 10:36:40 AM 31.5767 -81.1758 37° Northeast 447 514 35,000  Level Jacksonville Center
Fri 10:37:40 AM 31.6675 -81.0983 36° Northeast 441 507 35,000  Level Jacksonville Center
Fri 10:38:40 AM 31.7767 -81.0011 37° Northeast 441 507 35,000  Level Jacksonville Center
Fri 10:39:40 AM 31.8653 -80.9208 38° Northeast 447 514 35,000  Level Jacksonville Center
Fri 10:40:40 AM 31.9742 -80.8256 37° Northeast 447 514 35,000  Level Jacksonville Center
Fri 10:41:40 AM 32.0731 -80.7400 36° Northeast 442 509 35,000  Level Jacksonville Center
Fri 10:42:40 AM 32.1594 -80.6569 39° Northeast 442 509 35,000  Level Jacksonville Center
Fri 10:43:40 AM 32.2581 -80.5686 37° Northeast 442 509 35,000  Level Jacksonville Center
Fri 10:44:40 AM 32.3544 -80.4825 37° Northeast 442 509 35,000  Level Jacksonville Center
Fri 10:45:40 AM 32.4531 -80.3936 37° Northeast 437 503 35,000  Level Jacksonville Center
Fri 10:46:40 AM 32.5472 -80.3072 38° Northeast 432 497 35,000  Level Jacksonville Center
Fri 10:47:40 AM 32.6436 -80.2183 38° Northeast 432 497 35,000  Level Jacksonville Center
Fri 10:48:40 AM 32.7478 -80.1214 38° Northeast 432 497 35,000  Level Jacksonville Center
Fri 10:49:40 AM 32.8461 -80.0342 37° Northeast 432 497 35,000  Level Jacksonville Center
Fri 10:50:40 AM 32.9400 -79.9447 39° Northeast 432 497 35,000  Level Jacksonville Center
Fri 10:51:40 AM 33.0361 -79.8572 37° Northeast 432 497 35,000 -350 Level Jacksonville Center
Fri 10:52:40 AM 33.1342 -79.7694 37° Northeast 432 497 34,300 -750 Descending Jacksonville Center
Fri 10:53:40 AM 33.2281 -79.6819 38° Northeast 432 497 33,500 -650 Descending Jacksonville Center
Fri 10:54:40 AM 33.3217 -79.5964 37° Northeast 427 491 33,000 -250 Descending Jacksonville Center
Fri 10:55:40 AM 33.4153 -79.5058 39° Northeast 427 491 33,000  Level Jacksonville Center
Fri 10:56:40 AM 33.5089 -79.4153 39° Northeast 433 498 33,000  Level Jacksonville Center
Fri 10:57:40 AM 33.6067 -79.3267 37° Northeast 433 498 33,000  Level Jacksonville Center
Fri 10:59:19 AM 33.7483 -79.1931 38° Northeast 403 464 33,000  Level Washington Center
Fri 11:00:19 AM 33.8450 -79.1022 38° Northeast 413 475 33,000  Level Washington Center
Fri 11:01:17 AM 33.9394 -79.0111 39° Northeast 427 491 33,000  Level Washington Center
Fri 11:02:17 AM 34.0358 -78.9197 38° Northeast 432 497 33,000  Level Washington Center
Fri 11:03:18 AM 34.1303 -78.8283 39° Northeast 432 497 33,000  Level Washington Center
Fri 11:04:19 AM 34.2244 -78.7314 40° Northeast 432 497 33,000  Level Washington Center
Fri 11:05:17 AM 34.3208 -78.6369 39° Northeast 437 503 33,000  Level Washington Center
Fri 11:06:18 AM 34.4172 -78.5425 39° Northeast 437 503 33,000  Level Washington Center
Fri 11:07:18 AM 34.5133 -78.4425 41° Northeast 437 503 33,000  Level Washington Center
Fri 11:08:19 AM 34.6094 -78.3475 39° Northeast 437 503 33,000  Level Washington Center
Fri 11:09:17 AM 34.7036 -78.2522 40° Northeast 437 503 33,000  Level Washington Center
Fri 11:10:18 AM 34.7972 -78.1592 39° Northeast 437 503 33,000  Level Washington Center
Fri 11:11:19 AM 34.8892 -78.0558 43° Northeast 437 503 33,000  Level Washington Center
Fri 11:12:19 AM 34.9808 -77.9597 41° Northeast 437 503 33,000 -101 Level Washington Center
Fri 11:13:18 AM 35.0744 -77.8633 40° Northeast 437 503 32,800 -655 Descending Washington Center
Fri 11:14:18 AM 35.1661 -77.7694 40° Northeast 437 503 31,700 -992 Descending Washington Center
Fri 11:15:19 AM 35.2575 -77.6778 39° Northeast 427 491 30,800 -942 Descending Washington Center
Fri 11:16:19 AM 35.3467 -77.5833 41° Northeast 427 491 29,800 -966 Descending Washington Center
Fri 11:17:17 AM 35.4417 -77.5067 33° Northeast 422 486 28,900 -966 Descending Washington Center
Fri 11:18:17 AM 35.5408 -77.4428 28° Northeast 404 465 27,900 -1,983 Descending Washington Center
Fri 11:19:18 AM 35.6378 -77.3758 29° Northeast 398 458 24,900 -2,508 Descending Washington Center
Fri 11:20:19 AM 35.7347 -77.3117 28° Northeast 398 458 22,800 -1,462 Descending Washington Center
Fri 11:21:17 AM 35.8275 -77.2469 29° Northeast 392 451 22,000 -403 Descending Washington Center
Fri 11:22:18 AM 35.9286 -77.1797 28° Northeast 378 435 22,000  Level Washington Center
Fri 11:23:18 AM 36.0003 -77.1272 31° Northeast 355 409 22,000 -248 Level Washington Center
Fri 11:24:19 AM 36.0886 -77.0700 28° Northeast 343 395 21,500 -1,271 Descending Washington Center
Fri 11:25:16 AM 36.1811 -77.0072 29° Northeast 361 415 19,500 -1,729 Descending Washington Center
Fri 11:26:17 AM 36.2589 -76.9494 31° Northeast 343 395 18,100 -1,918 Descending Washington Center
Fri 11:27:18 AM 36.3492 -76.8917 27° Northeast 340 391 15,600 -2,331 Descending Washington Center
Fri 11:28:18 AM 36.4189 -76.8181 40° Northeast 339 390 13,400 -1,587 Descending Washington Center
Fri 11:29:19 AM 36.4719 -76.7389 50° Northeast 329 379 12,400 -1,613 Descending Washington Center
Fri 11:30:17 AM 36.5289 -76.6594 48° Northeast 310 357 10,200 -1,600 Descending Washington Center
Fri 11:31:19 AM 36.5900 -76.6086 34° Northeast 286 329 9,200 -1,150 Descending Washington Center
Fri 11:32:17 AM 36.6528 -76.5783 21° North 254 292 7,900 -1,563 Descending Washington Center
Fri 11:33:18 AM 36.7136 -76.5428 25° Northeast 230 265 6,100 -1,547 Descending Washington Center
Fri 11:34:25 AM 36.7764 -76.5150 20° North 222 255 4,600 -1,219 Descending Washington Center
Fri 11:35:26 AM 36.7872 -76.4400 80° East 212 244 3,500 -787 Descending Washington Center
Fri 11:36:27 AM 36.7878 -76.3622 89° East 223 257 3,000 -344 Descending Washington Center
Fri 11:37:28 AM 36.8111 -76.3028 64° Northeast 177 204 2,800 -689 Descending Washington Center
Fri 11:38:29 AM 36.8342 -76.2642 53° Northeast 127 146 1,600 -1,180 Descending Washington Center

Login

Don't have an account? Register now (free) for customized features, flight alerts, and more!